createdAt,value
2017-11-15T00:01:59.125Z,17.60
2017-11-15T00:04:27.618Z,14.73
2017-11-15T00:06:56.053Z,16.37
2017-11-15T00:09:25.200Z,16.70
2017-11-15T00:11:53.615Z,17.03
2017-11-15T00:14:21.936Z,17.40
2017-11-15T00:16:50.341Z,15.73
2017-11-15T00:19:18.743Z,15.50
2017-11-15T00:21:47.150Z,17.67
2017-11-15T00:24:16.251Z,15.43
2017-11-15T00:26:44.863Z,18.20
2017-11-15T00:29:13.231Z,17.93
2017-11-15T00:31:41.789Z,18.80
2017-11-15T00:34:11.194Z,15.67
2017-11-15T00:36:40.393Z,16.23
2017-11-15T00:39:08.901Z,18.23
2017-11-15T00:41:37.389Z,18.47
2017-11-15T00:44:05.811Z,17.70
2017-11-15T00:46:34.343Z,18.10
2017-11-15T00:49:02.757Z,18.83
2017-11-15T00:51:31.175Z,19.73
2017-11-15T00:53:59.588Z,18.00
2017-11-15T00:56:27.958Z,17.43
2017-11-15T00:58:56.330Z,19.07
2017-11-15T01:01:24.808Z,20.23
2017-11-15T01:03:53.300Z,18.90
2017-11-15T01:06:21.724Z,19.67
2017-11-15T01:08:50.057Z,19.73
2017-11-15T01:11:18.544Z,18.03
2017-11-15T01:13:46.890Z,20.70
2017-11-15T01:16:16.103Z,19.10
2017-11-15T01:18:44.477Z,19.60
2017-11-15T01:21:12.909Z,18.77
2017-11-15T01:23:41.358Z,18.40
2017-11-15T01:26:09.809Z,18.70
2017-11-15T01:28:38.933Z,20.00
2017-11-15T01:31:07.287Z,17.20
2017-11-15T01:33:36.509Z,19.53
2017-11-15T01:36:04.886Z,19.17
2017-11-15T01:38:33.293Z,20.80
2017-11-15T01:41:01.715Z,19.77
2017-11-15T01:43:30.834Z,18.53
2017-11-15T01:45:59.191Z,20.37
2017-11-15T01:48:28.433Z,19.87
2017-11-15T01:50:56.796Z,20.17
2017-11-15T01:53:25.247Z,18.60
2017-11-15T01:55:54.371Z,19.13
2017-11-15T01:58:22.719Z,20.33
2017-11-15T02:01:17.754Z,21.30
2017-11-15T02:03:46.130Z,18.60
2017-11-15T02:06:14.514Z,20.67
2017-11-15T02:08:42.921Z,18.17
2017-11-15T02:11:11.331Z,18.07
2017-11-15T02:13:40.605Z,17.10
2017-11-15T02:16:09.120Z,15.63
2017-11-15T02:18:38.388Z,18.17
2017-11-15T02:21:06.762Z,18.30
2017-11-15T02:23:35.514Z,17.90
2017-11-15T02:26:03.952Z,17.70
2017-11-15T02:28:32.446Z,17.90
2017-11-15T02:31:01.569Z,17.57
2017-11-15T02:33:29.996Z,16.20
2017-11-15T02:35:58.385Z,16.80
2017-11-15T02:38:27.012Z,18.07
2017-11-15T02:40:55.483Z,17.20
2017-11-15T02:43:23.871Z,15.77
2017-11-15T02:45:52.249Z,17.10
2017-11-15T02:48:20.628Z,16.77
2017-11-15T02:50:48.996Z,17.17
2017-11-15T02:53:17.384Z,16.70
2017-11-15T02:55:45.762Z,15.67
2017-11-15T02:58:14.199Z,15.23
2017-11-15T03:00:42.599Z,14.73
2017-11-15T03:03:10.992Z,15.90
2017-11-15T03:05:39.481Z,15.93
2017-11-15T03:08:07.952Z,16.17
2017-11-15T03:10:36.317Z,16.63
2017-11-15T03:13:05.464Z,17.30
2017-11-15T03:15:33.946Z,15.93
2017-11-15T03:18:02.725Z,17.47
2017-11-15T03:20:31.185Z,14.57
2017-11-15T03:22:59.554Z,17.07
2017-11-15T03:25:28.760Z,17.20
2017-11-15T03:27:57.139Z,14.97
2017-11-15T03:30:25.572Z,16.90
2017-11-15T03:32:53.968Z,17.33
2017-11-15T03:35:22.358Z,15.73
2017-11-15T03:37:51.573Z,17.70
2017-11-15T03:40:19.991Z,14.97
2017-11-15T03:42:48.542Z,16.00
2017-11-15T03:45:16.914Z,15.60
2017-11-15T03:47:46.109Z,15.17
2017-11-15T03:50:15.356Z,13.77
2017-11-15T03:52:43.765Z,14.43
2017-11-15T03:55:12.247Z,13.50
2017-11-15T03:57:41.433Z,15.20
2017-11-15T04:00:09.857Z,13.27
2017-11-15T04:02:38.228Z,15.93
2017-11-15T04:05:06.688Z,14.60
2017-11-15T04:07:35.068Z,12.90
2017-11-15T04:10:04.333Z,13.40
2017-11-15T04:12:32.839Z,13.03
2017-11-15T04:15:01.230Z,12.40
2017-11-15T04:17:30.418Z,12.40
2017-11-15T04:19:58.908Z,13.63
2017-11-15T04:22:28.210Z,12.33
2017-11-15T04:24:57.470Z,12.00
2017-11-15T04:27:25.891Z,12.27
2017-11-15T04:29:55.020Z,10.70
2017-11-15T04:32:23.425Z,12.93
2017-11-15T04:34:51.747Z,11.20
2017-11-15T04:37:20.978Z,12.27
2017-11-15T04:39:49.446Z,10.80
2017-11-15T04:42:17.827Z,10.90
2017-11-15T04:44:46.282Z,10.13
2017-11-15T04:47:15.589Z,9.43
2017-11-15T04:49:44.809Z,9.47
2017-11-15T04:52:13.278Z,10.00
2017-11-15T04:54:41.643Z,10.00
2017-11-15T04:57:10.842Z,9.43
2017-11-15T04:59:40.041Z,10.40
2017-11-15T05:02:09.239Z,9.90
2017-11-15T05:04:38.502Z,10.33
2017-11-15T05:07:06.846Z,10.07
2017-11-15T05:09:35.289Z,10.70
2017-11-15T05:12:04.426Z,10.77
2017-11-15T05:14:32.806Z,10.40
2017-11-15T05:17:01.249Z,11.60
2017-11-15T05:19:30.385Z,11.17
2017-11-15T05:21:58.762Z,10.33
2017-11-15T05:24:27.090Z,10.53
2017-11-15T05:26:55.436Z,10.23
2017-11-15T05:29:23.812Z,10.00
2017-11-15T05:31:52.134Z,10.73
2017-11-15T05:34:21.215Z,10.90
2017-11-15T05:36:49.582Z,10.43
2017-11-15T05:39:17.973Z,11.30
2017-11-15T05:41:46.385Z,11.00
2017-11-15T05:44:14.785Z,10.57
2017-11-15T05:46:43.146Z,11.70
2017-11-15T05:49:11.483Z,12.37
2017-11-15T05:51:39.924Z,11.80
2017-11-15T05:54:08.234Z,11.67
2017-11-15T05:56:36.600Z,13.60
2017-11-15T05:59:04.908Z,12.40
2017-11-15T06:01:33.219Z,11.40
2017-11-15T06:04:01.519Z,11.40
2017-11-15T06:06:29.851Z,11.67
2017-11-15T06:08:58.926Z,11.20
2017-11-15T06:11:27.266Z,11.40
2017-11-15T06:13:55.596Z,11.13
2017-11-15T06:16:23.947Z,11.53
2017-11-15T06:18:52.958Z,11.33
2017-11-15T06:21:22.053Z,11.13
2017-11-15T06:23:50.409Z,9.80
2017-11-15T06:26:19.491Z,11.10
2017-11-15T06:28:47.913Z,10.60
2017-11-15T06:31:16.193Z,11.37
2017-11-15T06:33:44.476Z,11.43
2017-11-15T06:36:12.839Z,12.10
2017-11-15T06:38:41.078Z,11.87
2017-11-15T06:41:09.383Z,11.87
2017-11-15T06:43:37.706Z,11.87
2017-11-15T06:46:06.009Z,12.30
2017-11-15T06:48:34.309Z,10.43
2017-11-15T06:51:02.625Z,10.90
2017-11-15T06:53:31.704Z,11.63
2017-11-15T06:56:01.125Z,11.20
2017-11-15T06:58:29.450Z,11.83
2017-11-15T07:00:57.846Z,13.60
2017-11-15T07:03:26.157Z,13.80
2017-11-15T07:05:54.454Z,12.60
2017-11-15T07:08:22.775Z,12.33
2017-11-15T07:10:51.081Z,11.53
2017-11-15T07:13:20.163Z,12.33
2017-11-15T07:15:48.456Z,12.13
2017-11-15T07:18:17.535Z,13.27
2017-11-15T07:20:45.860Z,10.50
2017-11-15T07:23:14.173Z,13.97
2017-11-15T07:25:42.484Z,12.10
2017-11-15T07:28:11.561Z,13.53
2017-11-15T07:30:39.919Z,12.50
2017-11-15T07:33:08.234Z,10.90
2017-11-15T07:35:37.304Z,12.47
2017-11-15T07:38:05.619Z,11.70
2017-11-15T07:40:33.922Z,12.00
2017-11-15T07:43:02.249Z,11.20
2017-11-15T07:45:31.330Z,11.37
2017-11-15T07:47:59.645Z,12.60
2017-11-15T07:50:27.944Z,10.27
2017-11-15T07:52:56.271Z,10.50
2017-11-15T07:55:24.570Z,11.60
2017-11-15T07:57:53.650Z,11.20
2017-11-15T08:00:21.964Z,9.93
2017-11-15T08:02:50.291Z,10.40
2017-11-15T08:05:18.586Z,10.73
2017-11-15T08:07:47.663Z,11.67
2017-11-15T08:10:15.957Z,10.37
2017-11-15T08:12:45.037Z,10.20
2017-11-15T08:15:13.342Z,9.87
2017-11-15T08:17:41.662Z,10.57
2017-11-15T08:20:09.979Z,10.30
2017-11-15T08:22:39.120Z,10.83
2017-11-15T08:25:07.436Z,11.43
2017-11-15T08:27:35.774Z,12.13
2017-11-15T08:30:04.093Z,12.23
2017-11-15T08:32:32.393Z,12.33
2017-11-15T08:35:01.467Z,12.10
2017-11-15T08:37:29.871Z,12.60
2017-11-15T08:39:58.953Z,11.67
2017-11-15T08:42:28.034Z,12.40
2017-11-15T08:44:56.346Z,10.70
2017-11-15T08:47:24.662Z,10.50
2017-11-15T08:49:53.054Z,11.23
2017-11-15T08:52:21.366Z,11.23
2017-11-15T08:54:50.440Z,11.30
2017-11-15T08:57:19.546Z,11.57
2017-11-15T08:59:48.610Z,10.50
2017-11-15T09:02:16.954Z,11.63
2017-11-15T09:04:45.254Z,11.90
2017-11-15T09:07:13.550Z,11.43
2017-11-15T09:09:41.866Z,10.53
2017-11-15T09:12:10.963Z,10.90
2017-11-15T09:14:40.027Z,10.73
2017-11-15T09:17:08.337Z,11.23
2017-11-15T09:19:37.405Z,11.00
2017-11-15T09:22:05.715Z,11.23
2017-11-15T09:24:34.042Z,10.37
2017-11-15T09:27:02.345Z,10.13
2017-11-15T09:29:30.650Z,9.97
2017-11-15T09:31:58.962Z,10.33
2017-11-15T09:34:27.290Z,9.50
2017-11-15T09:36:56.366Z,9.30
2017-11-15T09:39:24.694Z,9.00
2017-11-15T09:41:55.972Z,8.80
2017-11-15T09:44:24.292Z,9.43
2017-11-15T09:46:53.359Z,10.33
2017-11-15T09:49:21.686Z,8.83
2017-11-15T09:51:49.982Z,8.83
2017-11-15T09:54:18.295Z,8.60
2017-11-15T09:56:46.605Z,8.50
2017-11-15T09:59:14.915Z,7.83
2017-11-15T10:01:43.213Z,8.13
2017-11-15T10:04:11.531Z,8.33
2017-11-15T10:06:40.643Z,8.73
2017-11-15T10:09:08.954Z,9.40
2017-11-15T10:11:37.262Z,8.27
2017-11-15T10:14:05.565Z,9.27
2017-11-15T10:16:33.866Z,8.10
2017-11-15T10:19:02.174Z,8.10
2017-11-15T10:21:30.480Z,7.80
2017-11-15T10:23:59.566Z,7.70
2017-11-15T10:26:28.631Z,6.90
2017-11-15T10:28:56.937Z,7.20
2017-11-15T10:31:25.250Z,6.83
2017-11-15T10:33:53.572Z,6.80
2017-11-15T10:36:21.865Z,6.90
2017-11-15T10:38:50.178Z,7.00
2017-11-15T10:41:18.473Z,7.07
2017-11-15T10:43:46.786Z,7.00
2017-11-15T10:46:15.093Z,7.00
2017-11-15T10:48:44.177Z,12.43
2017-11-15T10:51:13.241Z,12.80
2017-11-15T10:53:41.548Z,9.00
2017-11-15T10:56:10.623Z,8.03
2017-11-15T10:58:38.952Z,7.40
2017-11-15T11:01:07.271Z,7.40
2017-11-15T11:03:36.347Z,7.30
2017-11-15T11:06:04.662Z,7.80
2017-11-15T11:08:33.754Z,8.57
2017-11-15T11:11:02.061Z,8.67
2017-11-15T11:13:30.377Z,8.40
2017-11-15T11:15:58.733Z,8.93
2017-11-15T11:18:27.065Z,9.37
2017-11-15T11:20:55.394Z,9.43
2017-11-15T11:23:23.702Z,9.93
2017-11-15T11:25:52.028Z,8.97
2017-11-15T11:28:21.897Z,10.67
2017-11-15T11:30:50.217Z,10.50
2017-11-15T11:33:18.528Z,9.30
2017-11-15T11:35:46.838Z,10.00
2017-11-15T11:38:15.138Z,9.87
2017-11-15T11:40:44.220Z,9.60
2017-11-15T11:43:12.540Z,10.13
2017-11-15T11:45:40.866Z,9.80
2017-11-15T11:48:09.173Z,10.70
2017-11-15T11:50:37.491Z,9.13
2017-11-15T11:53:05.794Z,10.00
2017-11-15T11:55:34.101Z,10.60
2017-11-15T11:58:03.165Z,9.57
2017-11-15T12:00:31.482Z,9.70
2017-11-15T12:02:59.799Z,10.50
2017-11-15T12:05:28.129Z,11.30
2017-11-15T12:07:57.208Z,10.50
2017-11-15T12:10:26.306Z,11.00
2017-11-15T12:12:55.381Z,12.67
2017-11-15T12:15:23.706Z,11.30
2017-11-15T12:17:52.006Z,11.60
2017-11-15T12:20:20.321Z,11.67
2017-11-15T12:22:48.618Z,9.93
2017-11-15T12:25:16.958Z,12.20
2017-11-15T12:27:45.278Z,12.93
2017-11-15T12:30:13.594Z,12.07
2017-11-15T12:32:41.917Z,12.90
2017-11-15T12:35:10.239Z,12.80
2017-11-15T12:37:38.543Z,12.00
2017-11-15T12:40:06.858Z,13.03
2017-11-15T12:42:35.921Z,12.73
2017-11-15T12:45:04.248Z,12.73
2017-11-15T12:47:32.546Z,13.37
2017-11-15T12:50:00.878Z,12.67
2017-11-15T12:52:29.949Z,13.20
2017-11-15T12:54:58.280Z,13.57
2017-11-15T12:57:26.581Z,11.83
2017-11-15T12:59:54.894Z,12.20
2017-11-15T13:02:23.223Z,12.20
2017-11-15T13:04:51.531Z,14.43
2017-11-15T13:07:19.840Z,14.97
2017-11-15T13:09:48.914Z,14.17
2017-11-15T13:12:17.246Z,14.13
2017-11-15T13:14:45.548Z,14.17
2017-11-15T13:17:13.886Z,15.50
2017-11-15T13:19:42.190Z,14.40
2017-11-15T13:22:10.522Z,14.17
2017-11-15T13:24:39.643Z,14.23
2017-11-15T13:27:07.979Z,15.07
2017-11-15T13:29:36.286Z,15.70
2017-11-15T13:32:05.365Z,14.00
2017-11-15T13:34:33.672Z,14.87
2017-11-15T13:37:01.997Z,13.50
2017-11-15T13:39:30.315Z,13.60
2017-11-15T13:41:58.630Z,14.40
2017-11-15T13:44:26.932Z,14.40
2017-11-15T13:46:55.256Z,13.80
2017-11-15T13:49:23.553Z,13.90
2017-11-15T13:51:51.879Z,14.20
2017-11-15T13:54:20.946Z,15.10
2017-11-15T13:56:49.292Z,14.77
2017-11-15T13:59:17.599Z,14.63
2017-11-15T14:01:45.923Z,14.83
2017-11-15T14:04:15.007Z,13.40
2017-11-15T14:06:44.085Z,13.60
2017-11-15T14:09:12.390Z,14.50
2017-11-15T14:11:41.465Z,12.37
2017-11-15T14:14:09.775Z,12.47
2017-11-15T14:16:38.086Z,11.57
2017-11-15T14:19:06.414Z,12.03
2017-11-15T14:21:34.730Z,12.77
2017-11-15T14:24:03.530Z,13.43
2017-11-15T14:26:31.847Z,14.03
2017-11-15T14:29:00.921Z,12.57
2017-11-15T14:31:29.242Z,12.97
2017-11-15T14:33:57.544Z,12.03
2017-11-15T14:36:25.854Z,11.93
2017-11-15T14:38:54.172Z,12.40
2017-11-15T14:41:22.517Z,11.80
2017-11-15T14:43:50.826Z,10.87
2017-11-15T14:46:19.906Z,11.00
2017-11-15T14:48:49.006Z,11.37
2017-11-15T14:51:17.337Z,10.77
2017-11-15T14:53:45.650Z,11.30
2017-11-15T14:56:13.954Z,11.00
2017-11-15T14:58:42.278Z,11.47
2017-11-15T15:01:10.605Z,12.33
2017-11-15T15:03:38.921Z,13.23
2017-11-15T15:06:07.223Z,11.33
2017-11-15T15:08:35.561Z,12.17
2017-11-15T15:11:03.947Z,11.40
2017-11-15T15:13:32.263Z,11.23
2017-11-15T15:16:00.578Z,10.90
2017-11-15T15:18:28.904Z,22.53
2017-11-15T15:20:57.238Z,74.33
2017-11-15T15:23:25.554Z,20.40
2017-11-15T15:25:53.875Z,13.70
2017-11-15T15:28:22.975Z,12.80
2017-11-15T15:30:51.282Z,12.47
2017-11-15T15:36:17.170Z,13.10
2017-11-15T15:38:46.257Z,12.73
2017-11-15T15:41:14.566Z,14.67
2017-11-15T15:43:42.902Z,12.20
2017-11-15T15:46:11.225Z,12.40
2017-11-15T15:48:39.551Z,11.90
2017-11-15T15:51:09.655Z,10.40
2017-11-15T15:53:37.993Z,10.40
2017-11-15T15:56:07.063Z,10.47
2017-11-15T15:58:36.155Z,11.03
2017-11-15T16:01:04.479Z,10.90
2017-11-15T16:03:32.815Z,11.43
2017-11-15T16:06:01.465Z,11.67
2017-11-15T16:08:29.802Z,11.60
2017-11-15T16:10:58.108Z,13.00
2017-11-15T16:13:26.428Z,12.40
2017-11-15T16:15:54.743Z,13.13
2017-11-15T16:18:23.068Z,12.07
2017-11-15T16:20:51.378Z,12.70
2017-11-15T16:23:20.469Z,12.07
2017-11-15T16:25:49.533Z,11.70
2017-11-15T16:28:17.859Z,12.17
2017-11-15T16:30:46.167Z,11.63
2017-11-15T16:33:14.482Z,12.40
2017-11-15T16:35:42.820Z,11.57
2017-11-15T16:38:11.125Z,11.10
2017-11-15T16:40:39.451Z,12.90
2017-11-15T16:43:07.758Z,11.90
2017-11-15T16:45:36.105Z,11.37
2017-11-15T16:48:04.406Z,12.37
2017-11-15T16:50:32.738Z,11.37
2017-11-15T16:53:01.831Z,10.83
2017-11-15T16:55:30.905Z,11.40
2017-11-15T16:57:59.206Z,11.90
2017-11-15T17:00:28.291Z,11.27
2017-11-15T17:02:56.585Z,10.90
2017-11-15T17:05:25.666Z,10.20
2017-11-15T17:07:54.743Z,10.63
2017-11-15T17:10:23.058Z,10.33
2017-11-15T17:12:51.381Z,10.80
2017-11-15T17:15:19.704Z,12.03
2017-11-15T17:17:48.783Z,12.67
2017-11-15T17:20:17.098Z,11.40
2017-11-15T17:22:45.403Z,11.50
2017-11-15T17:25:13.717Z,13.00
2017-11-15T17:27:42.022Z,12.93
2017-11-15T17:30:10.357Z,12.37
2017-11-15T17:32:38.707Z,12.37
2017-11-15T17:35:07.034Z,12.90
2017-11-15T17:37:36.123Z,13.43
2017-11-15T17:40:04.447Z,12.90
2017-11-15T17:42:32.758Z,12.17
2017-11-15T17:45:01.090Z,12.80
2017-11-15T17:47:29.402Z,11.50
2017-11-15T17:49:57.743Z,11.90
2017-11-15T17:52:26.061Z,10.73
2017-11-15T17:54:54.385Z,11.77
2017-11-15T17:57:22.734Z,11.03
2017-11-15T17:59:51.033Z,11.43
2017-11-15T18:02:20.142Z,12.00
2017-11-15T18:04:48.457Z,11.90
2017-11-15T18:07:16.782Z,11.60
2017-11-15T18:09:45.870Z,13.67
2017-11-15T18:12:14.958Z,12.30
2017-11-15T18:14:43.305Z,13.57
2017-11-15T18:17:11.610Z,14.07
2017-11-15T18:19:40.706Z,11.93
2017-11-15T18:22:09.020Z,12.90
2017-11-15T18:24:37.330Z,13.10
2017-11-15T18:27:05.643Z,13.07
2017-11-15T18:29:34.734Z,12.20
2017-11-15T18:32:03.051Z,11.90
2017-11-15T18:34:31.379Z,11.77
2017-11-15T18:36:59.691Z,12.00
2017-11-15T18:39:28.753Z,12.60
2017-11-15T18:41:57.069Z,12.13
2017-11-15T18:44:25.380Z,11.40
2017-11-15T18:46:53.697Z,11.10
2017-11-15T18:49:22.775Z,11.63
2017-11-15T18:51:51.103Z,12.70
2017-11-15T18:54:19.409Z,13.00
2017-11-15T18:56:47.722Z,14.47
2017-11-15T18:59:16.811Z,15.10
2017-11-15T19:01:45.161Z,15.17
2017-11-15T19:04:13.481Z,17.20
2017-11-15T19:06:42.559Z,16.87
2017-11-15T19:09:10.858Z,16.07
2017-11-15T19:11:39.942Z,16.63
2017-11-15T19:14:09.009Z,15.80
2017-11-15T19:16:37.326Z,17.27
2017-11-15T19:19:06.400Z,16.90
2017-11-15T19:21:34.720Z,17.90
2017-11-15T19:24:03.384Z,17.20
2017-11-15T19:26:32.451Z,18.43
2017-11-15T19:29:00.777Z,18.57
2017-11-15T19:31:29.098Z,18.33
2017-11-15T19:33:57.414Z,18.57
2017-11-15T19:36:26.542Z,20.17
2017-11-15T19:38:54.854Z,20.20
2017-11-15T19:41:23.150Z,21.97
2017-11-15T19:43:51.468Z,20.93
2017-11-15T19:46:19.778Z,23.90
2017-11-15T19:48:48.085Z,21.87
2017-11-15T19:51:17.179Z,25.20
2017-11-15T19:53:45.482Z,25.40
2017-11-15T19:56:13.781Z,27.83
2017-11-15T19:58:42.081Z,29.07
2017-11-15T20:01:10.394Z,28.00
2017-11-15T20:03:38.713Z,31.40
2017-11-15T20:06:07.010Z,31.13
2017-11-15T20:08:35.317Z,30.43
2017-11-15T20:11:04.373Z,30.97
2017-11-15T20:13:32.674Z,34.60
2017-11-15T20:16:01.126Z,32.17
2017-11-15T20:18:29.438Z,34.60
2017-11-15T20:20:57.732Z,31.30
2017-11-15T20:23:26.801Z,35.10
2017-11-15T20:25:55.111Z,32.57
2017-11-15T20:28:24.192Z,34.27
2017-11-15T20:30:53.265Z,35.60
2017-11-15T20:33:21.609Z,37.50
2017-11-15T20:35:49.907Z,36.37
2017-11-15T20:38:18.209Z,33.80
2017-11-15T20:40:46.505Z,33.10
2017-11-15T20:43:15.580Z,36.97
2017-11-15T20:45:43.877Z,34.87
2017-11-15T20:48:12.945Z,37.50
2017-11-15T20:50:41.245Z,36.23
2017-11-15T20:53:10.322Z,38.20
2017-11-15T20:55:38.618Z,34.70
2017-11-15T20:58:07.691Z,35.03
2017-11-15T21:00:35.999Z,34.47
2017-11-15T21:03:05.075Z,32.00
2017-11-15T21:05:34.172Z,30.47
2017-11-15T21:08:02.472Z,29.97
2017-11-15T21:10:30.787Z,32.60
2017-11-15T21:12:59.077Z,30.20
2017-11-15T21:15:27.397Z,29.57
2017-11-15T21:17:55.733Z,30.43
2017-11-15T21:20:24.458Z,31.10
2017-11-15T21:22:53.555Z,32.07
2017-11-15T21:25:21.889Z,31.00
2017-11-15T21:27:50.221Z,35.13
2017-11-15T21:30:18.532Z,31.17
2017-11-15T21:32:46.833Z,32.47
2017-11-15T21:35:15.158Z,30.37
2017-11-15T21:37:43.473Z,30.77
2017-11-15T21:40:11.790Z,29.63
2017-11-15T21:42:40.863Z,28.83
2017-11-15T21:45:09.173Z,29.77
2017-11-15T21:47:37.489Z,27.43
2017-11-15T21:50:05.786Z,27.73
2017-11-15T21:52:34.089Z,28.23
2017-11-15T21:55:02.414Z,30.27
2017-11-15T21:57:30.721Z,30.07
2017-11-15T21:59:59.038Z,29.30
2017-11-15T22:02:28.099Z,28.83
2017-11-15T22:04:56.455Z,30.10
2017-11-15T22:07:24.754Z,28.30
2017-11-15T22:09:53.056Z,32.97
2017-11-15T22:12:22.199Z,29.70
2017-11-15T22:14:50.506Z,29.87
2017-11-15T22:17:18.809Z,34.03
2017-11-15T22:19:47.883Z,31.90
2017-11-15T22:22:16.197Z,30.03
2017-11-15T22:24:44.509Z,31.70
2017-11-15T22:27:12.807Z,29.20
2017-11-15T22:29:41.129Z,30.50
2017-11-15T22:32:09.429Z,30.40
2017-11-15T22:34:37.722Z,29.60
2017-11-15T22:37:06.023Z,28.43
2017-11-15T22:39:34.336Z,25.90
2017-11-15T22:42:02.667Z,30.57
2017-11-15T22:44:30.987Z,28.07
2017-11-15T22:46:59.286Z,28.13
2017-11-15T22:49:27.582Z,24.00
2017-11-15T22:51:56.655Z,24.20
2017-11-15T22:54:24.959Z,25.70
2017-11-15T22:56:53.260Z,22.60
2017-11-15T22:59:21.565Z,22.80
2017-11-15T23:01:49.864Z,22.17
2017-11-15T23:04:18.176Z,22.83
2017-11-15T23:06:46.499Z,22.70
2017-11-15T23:09:14.793Z,21.97
2017-11-15T23:11:43.107Z,22.00
2017-11-15T23:14:11.409Z,20.50
2017-11-15T23:16:40.484Z,20.87
2017-11-15T23:19:08.793Z,20.93
2017-11-15T23:21:37.858Z,20.27
2017-11-15T23:24:06.150Z,19.50
2017-11-15T23:26:34.461Z,16.70
2017-11-15T23:29:02.766Z,18.33
2017-11-15T23:31:31.087Z,20.20
2017-11-15T23:34:00.141Z,19.10
2017-11-15T23:36:28.454Z,16.70
2017-11-15T23:38:56.750Z,17.33
2017-11-15T23:41:25.064Z,18.37
2017-11-15T23:43:53.376Z,18.50
2017-11-15T23:46:21.695Z,19.67
2017-11-15T23:48:49.987Z,18.00
2017-11-15T23:51:18.302Z,21.00
2017-11-15T23:53:46.611Z,17.57
2017-11-15T23:56:15.691Z,22.10
2017-11-15T23:58:44.758Z,19.20
